Time;durP1;ratioP1;P1;durP2;ratioP2;P2;SDS_P1;SDS_P2;PMS_P1;PMS_P2;Temp;Humidity;BMP_temperature;BMP_pressure;BME280_temperature;BME280_humidity;BME280_pressure;Samples;Min_cycle;Max_cycle;Signal;HPM_P1;HPM_P2
2021/12/10 00:01:36;;;;;;;0.90;0.90;;;;;;;;;;4974093;28;20110;-88
2021/12/10 00:04:04;;;;;;;2.20;1.30;;;;;;;;;;4975079;28;20170;-88
2021/12/10 00:06:35;;;;;;;9.18;1.20;;;;;;;;;;4974502;28;20030;-89
2021/12/10 00:09:06;;;;;;;0.55;0.50;;;;;;;;;;4975019;28;20398;-87
2021/12/10 00:11:35;;;;;;;0.70;0.70;;;;;;;;;;4975724;28;20393;-87
2021/12/10 00:14:01;;;;;;;3.22;1.27;;;;;;;;;;4974459;28;20039;-89
2021/12/10 00:16:27;;;;;;;2.47;1.25;;;;;;;;;;4975225;28;20032;-88
2021/12/10 00:19:06;;;;;;;4.97;1.98;;;;;;;;;;4974930;28;20086;-89
2021/12/10 00:21:32;;;;;;;2.45;1.13;;;;;;;;;;4961789;28;20456;-89
2021/12/10 00:23:58;;;;;;;1.40;0.90;;;;;;;;;;4973421;28;20114;-90
2021/12/10 00:26:24;;;;;;;1.15;1.05;;;5.90;62.80;;;;;;4975330;28;20050;-88
2021/12/10 00:28:51;;;;;;;1.50;0.98;;;;;;;;;;4973298;28;20046;-88
2021/12/10 00:31:45;;;;;;;1.23;1.13;;;;;;;;;;4974836;28;20023;-88
2021/12/10 00:34:17;;;;;;;1.88;1.08;;;5.90;63.00;;;;;;4975066;28;20283;-86
2021/12/10 00:36:44;;;;;;;1.33;1.00;;;;;;;;;;4974100;28;20027;-88
2021/12/10 00:39:12;;;;;;;2.80;2.60;;;;;;;;;;4974665;28;20027;-87
2021/12/10 00:41:39;;;;;;;4.88;1.75;;;6.00;63.10;;;;;;4974954;28;20632;-88
2021/12/10 00:44:05;;;;;;;3.50;2.35;;;;;;;;;;4974540;28;20035;-88
2021/12/10 00:46:31;;;;;;;3.15;2.58;;;;;;;;;;4975093;28;20117;-88
2021/12/10 00:48:57;;;;;;;5.63;2.22;;;;;;;;;;4974722;28;20034;-88
2021/12/10 00:51:24;;;;;;;1.98;1.10;;;;;;;;;;4974077;28;20026;-88
2021/12/10 00:57:40;;;;;;;4.43;1.23;;;6.20;56.70;;;;;;4972528;28;20069;-88
2021/12/10 01:00:11;;;;;;;0.63;0.63;;;;;;;;;;4954786;28;20027;-89
2021/12/10 01:02:38;;;;;;;0.60;0.60;;;;;;;;;;4973788;28;20035;-89
2021/12/10 01:05:04;;;;;;;0.73;0.63;;;;;;;;;;4973830;28;20082;-88
2021/12/10 01:07:33;;;;;;;1.98;1.15;;;;;;;;;;4973245;28;20022;-88
2021/12/10 01:09:59;;;;;;;0.90;0.90;;;;;;;;;;4974194;28;20031;-89
2021/12/10 01:12:43;;;;;;;1.45;0.73;;;;;;;;;;4974264;28;20050;-87
2021/12/10 01:15:35;;;;;;;3.53;0.88;;;;;;;;;;4973009;28;20038;-88
2021/12/10 01:26:24;;;;;;;1.42;0.80;;;6.20;64.00;;;;;;4973476;28;20050;-88
2021/12/10 01:28:53;;;;;;;0.50;0.50;;;;;;;;;;4974119;28;20514;-89
2021/12/10 01:31:20;;;;;;;0.70;0.60;;;;;;;;;;4974003;28;20026;-88
2021/12/10 01:33:46;;;;;;;1.00;0.80;;;;;;;;;;4974114;28;20117;-89
2021/12/10 01:36:12;;;;;;;1.02;1.02;;;;;;;;;;4973448;28;20042;-88
2021/12/10 01:38:40;;;;;;;1.65;1.48;;;;;;;;;;4973556;28;20054;-87
2021/12/10 01:41:10;;;;;;;0.77;0.77;;;;;;;;;;4973980;28;20069;-88
2021/12/10 01:43:39;;;;;;;0.70;0.70;;;;;;;;;;4974156;28;20487;-89
2021/12/10 01:46:09;;;;;;;0.43;0.43;;;;;;;;;;4973809;28;20031;-87
2021/12/10 01:48:47;;;;;;;0.82;0.75;;;5.70;77.40;;;;;;4973894;28;20022;-87
2021/12/10 01:51:16;;;;;;;1.30;0.93;;;5.60;78.30;;;;;;4956179;28;20094;-89
2021/12/10 01:53:43;;;;;;;0.75;0.75;;;;;;;;;;4973690;28;20047;-89
2021/12/10 01:56:15;;;;;;;0.60;0.60;;;5.50;77.90;;;;;;4973535;28;20030;-88
2021/12/10 01:58:41;;;;;;;3.20;0.65;;;;;;;;;;4956200;28;20563;-88
2021/12/10 02:01:10;;;;;;;0.65;0.45;;;;;;;;;;4973498;28;20030;-87
2021/12/10 02:03:37;;;;;;;0.93;0.93;;;;;;;;;;4973159;28;20506;-88
2021/12/10 02:06:04;;;;;;;0.77;0.63;;;;;;;;;;4972916;28;20106;-87
2021/12/10 02:08:30;;;;;;;5.22;0.98;;;;;;;;;;4972593;28;20411;-88
2021/12/10 02:10:56;;;;;;;1.20;0.80;;;;;;;;;;4972314;28;20026;-87
2021/12/10 02:13:22;;;;;;;1.40;0.95;;;;;;;;;;4970288;28;20041;-87
2021/12/10 02:15:48;;;;;;;0.98;0.73;;;;;;;;;;4971567;28;20023;-87
2021/12/10 02:18:15;;;;;;;0.70;0.70;;;;;;;;;;4970668;28;20512;-86
2021/12/10 02:20:59;;;;;;;0.55;0.55;;;5.70;78.70;;;;;;4972061;28;20484;-87
2021/12/10 02:23:25;;;;;;;0.80;0.80;;;;;;;;;;4971138;28;20031;-87
2021/12/10 02:25:51;;;;;;;1.52;1.42;;;;;;;;;;4970078;28;20409;-87
2021/12/10 02:28:17;;;;;;;2.80;0.88;;;;;;;;;;4971861;28;20050;-87
2021/12/10 02:30:44;;;;;;;0.73;0.60;;;;;;;;;;4971943;28;20038;-87
2021/12/10 02:33:10;;;;;;;1.17;1.00;;;;;;;;;;4971754;28;20045;-87
2021/12/10 02:35:36;;;;;;;2.33;0.75;;;;;;;;;;4972105;28;20030;-87
2021/12/10 02:38:02;;;;;;;1.48;1.00;;;;;;;;;;4971686;28;20034;-87
2021/12/10 02:40:29;;;;;;;0.88;0.88;;;;;;;;;;4969141;28;20031;-90
2021/12/10 02:43:00;;;;;;;1.02;0.80;;;5.70;83.30;;;;;;4972278;28;20039;-89
2021/12/10 02:45:27;;;;;;;1.33;0.85;;;5.80;82.80;;;;;;4953588;28;20032;-91
2021/12/10 02:47:54;;;;;;;0.85;0.85;;;;;;;;;;4955167;28;20035;-90
2021/12/10 02:50:22;;;;;;;2.88;1.48;;;;;;;;;;4971240;28;20119;-88
2021/12/10 02:52:48;;;;;;;1.75;1.50;;;;;;;;;;4971009;28;20053;-88
2021/12/10 02:55:16;;;;;;;3.00;1.40;;;;;;;;;;4971704;28;20039;-86
2021/12/10 02:57:46;;;;;;;2.05;0.90;;;;;;;;;;4972225;28;20499;-88
2021/12/10 03:00:14;;;;;;;0.77;0.73;;;;;;;;;;4970665;28;20033;-88
2021/12/10 03:02:40;;;;;;;1.20;0.77;;;;;;;;;;4971164;28;20755;-88
2021/12/10 03:05:07;;;;;;;1.40;1.00;;;6.40;82.40;;;;;;4972433;28;20027;-87
2021/12/10 03:07:34;;;;;;;1.10;0.73;;;;;;;;;;4971832;28;20406;-87
2021/12/10 03:10:00;;;;;;;0.40;0.40;;;;;;;;;;4971032;28;20034;-89
2021/12/10 03:12:26;;;;;;;0.60;0.60;;;;;;;;;;4972051;28;20038;-88
2021/12/10 03:14:54;;;;;;;0.70;0.57;;;;;;;;;;4972119;28;20547;-88
2021/12/10 03:17:27;;;;;;;2.72;1.17;;;6.20;83.40;;;;;;4972193;28;20035;-89
2021/12/10 03:19:54;;;;;;;0.75;0.75;;;;;;;;;;4954790;28;20046;-87
2021/12/10 03:22:20;;;;;;;0.80;0.70;;;;;;;;;;4970813;28;20042;-87
2021/12/10 03:24:46;;;;;;;1.10;0.80;;;;;;;;;;4971916;28;20015;-87
2021/12/10 03:27:14;;;;;;;0.50;0.50;;;;;;;;;;4970267;28;20038;-86
2021/12/10 03:29:42;;;;;;;10.10;4.55;;;6.40;83.10;;;;;;4974739;28;20377;-88
2021/12/10 03:32:13;;;;;;;2.08;1.52;;;6.40;83.30;;;;;;4976304;28;20042;-87
2021/12/10 03:34:40;;;;;;;2.42;1.52;;;6.40;83.40;;;;;;4958971;28;20514;-88
2021/12/10 03:37:06;;;;;;;;;;;6.60;83.30;;;;;;4976570;28;20037;-87
2021/12/10 03:39:33;;;;;;;1.98;1.15;;;6.50;83.20;;;;;;4976145;28;20012;-88
2021/12/10 03:41:59;;;;;;;0.95;0.90;;;6.50;82.30;;;;;;4975605;28;20492;-89
2021/12/10 03:44:25;;;;;;;0.70;0.60;;;;;;;;;;4976097;28;20034;-89
2021/12/10 03:46:52;;;;;;;2.35;1.40;;;;;;;;;;4975952;28;20492;-88
2021/12/10 03:49:18;;;;;;;2.45;0.75;;;;;;;;;;4975701;28;20474;-89
2021/12/10 03:51:45;;;;;;;1.13;0.65;;;;;;;;;;4975598;28;20129;-88
2021/12/10 03:54:13;;;;;;;1.40;0.90;;;;;;;;;;4975140;28;20109;-88
2021/12/10 03:56:39;;;;;;;0.40;0.40;;;;;;;;;;4976200;28;20031;-88
2021/12/10 03:59:07;;;;;;;0.35;0.35;;;;;;;;;;4976360;28;20023;-87
2021/12/10 04:01:37;;;;;;;0.40;0.40;;;6.60;85.50;;;;;;4975054;28;20066;-89
2021/12/10 04:04:07;;;;;;;0.60;0.60;;;6.70;85.40;;;;;;4958349;28;20101;-90
2021/12/10 04:06:33;;;;;;;0.88;0.68;;;;;;;;;;4958986;28;20034;-89
2021/12/10 04:09:00;;;;;;;0.70;0.70;;;;;;;;;;4975833;28;20073;-88
2021/12/10 04:11:26;;;;;;;0.50;0.50;;;;;;;;;;4976048;28;20035;-87
2021/12/10 04:13:53;;;;;;;0.80;0.77;;;;;;;;;;4974943;28;20042;-89
2021/12/10 04:16:20;;;;;;;0.93;0.70;;;;;;;;;;4975731;28;20034;-88
2021/12/10 04:18:47;;;;;;;;;;;6.90;84.50;;;;;;4976233;28;20043;-90
2021/12/10 04:21:14;;;;;;;0.60;0.50;;;;;;;;;;4975075;28;20286;-88
2021/12/10 04:23:41;;;;;;;1.65;0.75;;;;;;;;;;4974426;28;20027;-88
2021/12/10 04:26:08;;;;;;;0.88;0.63;;;;;;;;;;4975094;28;20031;-89
2021/12/10 04:28:34;;;;;;;0.75;0.60;;;;;;;;;;4974132;28;20089;-88
2021/12/10 04:31:00;;;;;;;0.50;0.50;;;;;;;;;;4974727;28;20031;-88
2021/12/10 04:33:26;;;;;;;0.63;0.63;;;;;;;;;;4974727;28;20061;-88
2021/12/10 04:35:54;;;;;;;0.68;0.60;;;;;;;;;;4974381;28;20054;-88
2021/12/10 04:38:22;;;;;;;0.40;0.40;;;;;;;;;;4975185;28;20507;-88
2021/12/10 04:40:49;;;;;;;0.40;0.40;;;7.20;83.90;;;;;;4974905;28;20023;-88
2021/12/10 04:43:15;;;;;;;;;;;;;;;;;;4958995;28;20138;-88
2021/12/10 04:45:41;;;;;;;0.70;0.70;;;;;;;;;;4974842;28;20624;-88
2021/12/10 04:48:07;;;;;;;0.43;0.43;;;;;;;;;;4974390;28;20030;-88
2021/12/10 04:50:34;;;;;;;0.70;0.60;;;;;;;;;;4975651;28;20547;-88
2021/12/10 04:53:00;;;;;;;0.50;0.50;;;;;;;;;;4970861;28;20043;-89
2021/12/10 04:55:28;;;;;;;11.07;1.00;;;;;;;;;;4974931;28;20073;-89
2021/12/10 04:57:54;;;;;;;0.73;0.73;;;;;;;;;;4974698;28;20361;-89
2021/12/10 05:00:23;;;;;;;1.17;0.75;;;;;;;;;;4974726;28;20499;-87
2021/12/10 05:02:49;;;;;;;0.50;0.50;;;;;;;;;;4974622;28;20019;-88
2021/12/10 05:05:15;;;;;;;1.55;0.73;;;;;;;;;;4974043;28;20035;-90
2021/12/10 05:07:42;;;;;;;1.08;0.50;;;;;;;;;;4974882;28;20054;-88
2021/12/10 05:10:09;;;;;;;0.50;0.50;;;;;;;;;;4973406;28;20165;-89
2021/12/10 05:12:35;;;;;;;0.50;0.50;;;;;;;;;;4974592;28;20129;-88
2021/12/10 05:15:02;;;;;;;0.63;0.63;;;;;;;;;;4973454;28;20023;-88
2021/12/10 05:17:30;;;;;;;0.43;0.43;;;;;;;;;;4973466;28;20715;-88
2021/12/10 05:19:59;;;;;;;2.55;0.90;;;;;;;;;;4974550;28;20519;-88
2021/12/10 05:22:25;;;;;;;1.15;0.88;;;;;;;;;;4974014;28;20022;-89
2021/12/10 05:24:51;;;;;;;0.30;0.30;;;;;;;;;;4973721;28;20407;-88
2021/12/10 05:27:17;;;;;;;1.42;0.52;;;;;;;;;;4974398;28;20031;-90
2021/12/10 05:29:43;;;;;;;1.73;0.80;;;;;;;;;;4973965;28;20035;-90
2021/12/10 05:32:11;;;;;;;0.70;0.70;;;;;;;;;;4973973;28;20547;-90
2021/12/10 05:34:40;;;;;;;1.40;0.70;;;;;;;;;;4974184;28;20027;-89
2021/12/10 05:37:07;;;;;;;0.95;0.80;;;7.70;85.70;;;;;;4973098;28;20037;-89
2021/12/10 05:39:33;;;;;;;0.57;0.57;;;;;;;;;;4975867;28;20458;-88
2021/12/10 05:42:01;;;;;;;3.78;1.25;;;;;;;;;;4992604;28;20105;-87
2021/12/10 05:44:27;;;;;;;0.70;0.70;;;;;;;;;;4955229;28;20110;-89
2021/12/10 05:46:53;;;;;;;1.58;0.88;;;;;;;;;;4970924;28;20567;-88
2021/12/10 05:49:19;;;;;;;1.75;0.63;;;;;;;;;;4974374;28;20042;-87
2021/12/10 05:51:45;;;;;;;1.88;0.80;;;;;;;;;;4973068;28;20015;-89
2021/12/10 05:54:12;;;;;;;0.75;0.75;;;;;;;;;;4973332;28;20080;-90
2021/12/10 05:56:38;;;;;;;0.80;0.70;;;;;;;;;;4974437;28;20023;-89
2021/12/10 05:59:04;;;;;;;5.63;0.95;;;;;;;;;;4974141;28;20089;-89
2021/12/10 06:01:30;;;;;;;0.93;0.50;;;;;;;;;;4972480;28;20031;-90
2021/12/10 06:03:56;;;;;;;0.73;0.60;;;;;;;;;;4973906;28;20027;-89
2021/12/10 06:06:28;;;;;;;0.60;0.60;;;;;;;;;;4972366;28;20029;-88
2021/12/10 06:08:55;;;;;;;0.80;0.70;;;7.80;87.10;;;;;;4972937;28;20038;-89
2021/12/10 06:11:22;;;;;;;0.40;0.40;;;7.80;86.90;;;;;;4957135;28;20031;-90
2021/12/10 06:13:48;;;;;;;1.85;0.95;;;;;;;;;;4978452;28;20073;-90
2021/12/10 06:16:15;;;;;;;0.60;0.60;;;7.80;86.60;;;;;;4972357;28;20857;-89
2021/12/10 06:18:41;;;;;;;0.95;0.95;;;;;;;;;;4972617;28;20071;-88
2021/12/10 06:21:07;;;;;;;0.50;0.50;;;;;;;;;;4964047;28;20037;-90
2021/12/10 06:23:33;;;;;;;1.02;0.68;;;;;;;;;;4973172;28;20057;-88
2021/12/10 06:26:00;;;;;;;0.50;0.50;;;;;;;;;;4968436;28;20023;-90
2021/12/10 06:28:26;;;;;;;3.92;0.60;;;;;;;;;;4969393;28;20034;-91
2021/12/10 06:30:53;;;;;;;0.90;0.70;;;;;;;;;;4971995;28;20096;-90
2021/12/10 06:33:21;;;;;;;1.02;0.60;;;;;;;;;;4966724;28;20097;-89
2021/12/10 06:35:50;;;;;;;2.45;0.63;;;;;;;;;;4972625;28;20035;-90
2021/12/10 06:38:17;;;;;;;0.95;0.60;;;7.90;86.90;;;;;;4972387;28;20121;-89
2021/12/10 06:40:44;;;;;;;0.50;0.50;;;;;;;;;;4972495;28;20110;-90
2021/12/10 06:43:10;;;;;;;0.73;0.73;;;;;;;;;;4980372;28;20131;-90
2021/12/10 06:45:37;;;;;;;3.83;0.50;;;;;;;;;;4972130;28;20070;-90
2021/12/10 06:48:04;;;;;;;0.50;0.50;;;;;;;;;;4971872;28;21655;-90
2021/12/10 06:50:32;;;;;;;0.82;0.82;;;;;;;;;;4972727;28;20043;-90
2021/12/10 06:52:59;;;;;;;1.52;0.80;;;;;;;;;;4971651;28;20054;-90
2021/12/10 06:55:26;;;;;;;1.10;0.65;;;;;;;;;;4961002;28;20027;-91
2021/12/10 06:57:52;;;;;;;0.40;0.40;;;;;;;;;;4967790;28;20035;-91
2021/12/10 07:00:26;;;;;;;0.50;0.50;;;;;;;;;;4958578;28;20030;-89
2021/12/10 07:02:52;;;;;;;1.48;0.95;;;;;;;;;;4967088;28;20515;-90
2021/12/10 07:05:19;;;;;;;4.57;1.38;;;;;;;;;;4971824;28;20081;-91
2021/12/10 07:07:45;;;;;;;1.05;0.82;;;;;;;;;;4972441;28;20027;-89
2021/12/10 07:10:13;;;;;;;0.70;0.70;;;;;;;;;;4971820;28;20022;-91
2021/12/10 07:12:39;;;;;;;;;;;7.90;88.80;;;;;;4973244;28;20042;-92
2021/12/10 07:15:09;;;;;;;0.75;0.40;;;;;;;;;;4971964;28;19985;-92
2021/12/10 07:17:37;;;;;;;0.80;0.80;;;;;;;;;;4973086;28;20113;-90
2021/12/10 07:20:05;;;;;;;1.25;0.95;;;;;;;;;;4971658;28;20042;-91
2021/12/10 07:22:31;;;;;;;0.90;0.73;;;;;;;;;;4967449;28;20030;-91
2021/12/10 07:24:57;;;;;;;2.45;1.30;;;;;;;;;;4961614;28;20026;-90
2021/12/10 07:27:23;;;;;;;0.82;0.82;;;;;;;;;;4971945;28;20034;-91
2021/12/10 07:29:49;;;;;;;0.65;0.65;;;;;;;;;;4973371;28;20117;-91
2021/12/10 07:32:15;;;;;;;0.70;0.70;;;;;;;;;;4960515;28;20074;-95
2021/12/10 07:34:41;;;;;;;2.45;1.23;;;;;;;;;;4966746;28;20525;-92
2021/12/10 07:37:10;;;;;;;0.55;0.45;;;;;;;;;;4960274;28;20082;-92
2021/12/10 07:39:37;;;;;;;1.13;0.60;;;;;;;;;;4964199;28;20030;-92
2021/12/10 07:42:03;;;;;;;0.65;0.65;;;;;;;;;;4968111;28;20138;-92
2021/12/10 07:44:32;;;;;;;0.60;0.60;;;;;;;;;;4965493;28;20049;-93
2021/12/10 07:47:00;;;;;;;1.10;1.00;;;;;;;;;;4968600;28;20027;-91
2021/12/10 07:49:41;;;;;;;0.85;0.80;;;;;;;;;;4970835;28;20033;-93
2021/12/10 07:52:24;;;;;;;0.50;0.50;;;;;;;;;;4965170;28;20070;-93
2021/12/10 07:54:53;;;;;;;0.80;0.57;;;;;;;;;;4964589;28;20040;-94
2021/12/10 07:57:27;;;;;;;0.70;0.70;;;;;;;;;;4967344;28;20143;-94
2021/12/10 07:59:57;;;;;;;0.50;0.50;;;;;;;;;;4969259;28;20038;-93
2021/12/10 08:02:23;;;;;;;0.60;0.60;;;;;;;;;;4965977;28;20126;-93
2021/12/10 08:05:01;;;;;;;0.85;0.60;;;;;;;;;;4964635;28;20615;-93
2021/12/10 08:07:36;;;;;;;1.10;1.05;;;;;;;;;;4967553;28;20026;-91
2021/12/10 08:10:03;;;;;;;0.75;0.52;;;;;;;;;;4969176;28;20130;-92
2021/12/10 08:12:29;;;;;;;1.42;0.50;;;;;;;;;;4967383;28;20149;-92
2021/12/10 08:14:56;;;;;;;0.70;0.70;;;;;;;;;;4964337;28;20062;-92
2021/12/10 08:17:24;;;;;;;1.13;0.68;;;;;;;;;;4955199;28;20031;-91
2021/12/10 08:19:50;;;;;;;0.73;0.65;;;;;;;;;;4973914;28;20027;-92
2021/12/10 08:22:16;;;;;;;1.63;0.90;;;;;;;;;;4969736;28;20503;-91
2021/12/10 08:24:42;;;;;;;0.70;0.70;;;;;;;;;;4966868;28;20038;-91
2021/12/10 08:27:08;;;;;;;3.17;1.27;;;;;;;;;;4971240;28;20566;-90
2021/12/10 08:29:35;;;;;;;1.55;0.52;;;;;;;;;;4973100;28;20550;-91
2021/12/10 08:32:02;;;;;;;0.60;0.60;;;;;;;;;;4971255;28;20128;-91
2021/12/10 08:34:29;;;;;;;4.32;1.70;;;;;;;;;;4968869;28;20535;-91
2021/12/10 08:36:55;;;;;;;0.97;0.80;;;;;;;;;;4971004;28;20543;-93
2021/12/10 08:39:21;;;;;;;1.60;0.88;;;;;;;;;;4970050;28;20039;-91
2021/12/10 08:41:51;;;;;;;0.95;0.65;;;;;;;;;;4972464;28;20031;-94
2021/12/10 08:44:17;;;;;;;1.08;0.80;;;;;;;;;;4969900;28;20030;-93
2021/12/10 08:46:53;;;;;;;0.60;0.60;;;;;;;;;;4969680;28;20030;-92
2021/12/10 08:49:19;;;;;;;2.60;0.85;;;;;;;;;;4971089;28;20026;-91
2021/12/10 08:51:47;;;;;;;1.45;1.00;;;;;;;;;;4971461;28;20052;-91
2021/12/10 08:54:14;;;;;;;1.80;0.90;;;;;;;;;;4968576;28;20117;-93
2021/12/10 08:56:41;;;;;;;1.85;0.75;;;;;;;;;;4968927;28;20043;-94
2021/12/10 08:59:10;;;;;;;9.75;0.77;;;;;;;;;;4972524;28;20031;-94
2021/12/10 09:01:39;;;;;;;2.13;1.38;;;;;;;;;;4970531;28;20106;-92
2021/12/10 09:04:11;;;;;;;1.15;1.10;;;;;;;;;;4969714;28;20038;-93
2021/12/10 09:06:38;;;;;;;1.13;0.70;;;;;;;;;;4962344;28;20026;-92
2021/12/10 09:09:05;;;;;;;2.08;1.27;;;;;;;;;;4972403;28;20145;-91
2021/12/10 09:11:31;;;;;;;0.88;0.70;;;;;;;;;;4970077;28;20059;-91
2021/12/10 09:13:58;;;;;;;2.05;1.42;;;;;;;;;;4967127;28;20574;-91
2021/12/10 09:16:27;;;;;;;0.60;0.50;;;;;;;;;;4966193;28;20035;-90
2021/12/10 09:18:56;;;;;;;4.45;1.13;;;;;;;;;;4972161;28;20054;-91
2021/12/10 09:21:23;;;;;;;1.52;0.90;;;;;;;;;;4955168;28;20392;-90
2021/12/10 09:23:50;;;;;;;0.52;0.52;;;;;;;;;;4971769;28;20078;-91
2021/12/10 09:26:18;;;;;;;2.15;0.75;;;;;;;;;;4966436;28;20122;-92
2021/12/10 09:28:45;;;;;;;0.50;0.50;;;;;;;;;;4968181;28;20031;-91
2021/12/10 09:31:14;;;;;;;2.73;0.60;;;;;;;;;;4971916;28;20034;-92
2021/12/10 09:33:42;;;;;;;0.90;0.68;;;;;;;;;;4969534;28;20547;-91
2021/12/10 09:36:09;;;;;;;1.98;0.93;;;;;;;;;;4968026;28;20030;-95
2021/12/10 09:38:51;;;;;;;;;;;;;;;;;;;;;
2021/12/10 09:41:21;;;;;;;7.97;1.45;;;;;;;;;;4970304;28;20033;-93
2021/12/10 09:43:47;;;;;;;1.60;0.93;;;;;;;;;;4970545;28;20591;-92
2021/12/10 09:46:13;;;;;;;1.90;1.08;;;;;;;;;;4963282;28;20135;-92
2021/12/10 09:48:41;;;;;;;0.60;0.60;;;;;;;;;;4967134;28;20523;-94
2021/12/10 09:51:07;;;;;;;;;;;;;;;;;;4973341;28;20535;-93
2021/12/10 09:53:33;;;;;;;0.70;0.70;;;;;;;;;;4970733;28;20191;-94
2021/12/10 09:56:00;;;;;;;2.45;1.08;;;;;;;;;;4968523;28;20047;-94
2021/12/10 09:58:30;;;;;;;6.85;1.23;;;;;;;;;;4972424;28;20038;-93
2021/12/10 10:01:00;;;;;;;8.88;1.63;;;;;;;;;;4956955;28;20025;-94
2021/12/10 10:03:31;;;;;;;2.25;0.93;;;;;;;;;;4969093;28;20122;-93
2021/12/10 10:05:58;;;;;;;1.40;1.00;;;;;;;;;;4967585;28;20055;-93
2021/12/10 10:08:33;;;;;;;1.88;0.75;;;;;;;;;;4967915;28;20447;-93
2021/12/10 10:11:06;;;;;;;1.02;0.95;;;;;;;;;;4971498;28;20073;-93
2021/12/10 10:13:34;;;;;;;11.02;1.02;;;;;;;;;;4971282;28;20046;-93
2021/12/10 10:16:25;;;;;;;;;;;9.00;77.40;;;;;;4966092;28;20452;-94
2021/12/10 10:19:05;;;;;;;0.70;0.70;;;;;;;;;;4956430;28;19922;-94
2021/12/10 10:21:36;;;;;;;5.18;0.90;;;;;;;;;;4972368;28;20021;-91
2021/12/10 10:24:03;;;;;;;1.25;1.13;;;;;;;;;;4967588;28;20030;-94
2021/12/10 10:26:42;;;;;;;2.50;1.02;;;;;;;;;;4967401;28;20039;-95
2021/12/10 10:29:15;;;;;;;3.67;1.13;;;;;;;;;;4969668;28;20078;-94
2021/12/10 10:31:45;;;;;;;1.67;1.42;;;;;;;;;;4970463;28;20019;-93
2021/12/10 10:34:12;;;;;;;2.72;0.73;;;;;;;;;;4970051;28;20129;-93
2021/12/10 10:36:50;;;;;;;3.63;1.38;;;;;;;;;;4968680;28;20050;-94
2021/12/10 10:39:18;;;;;;;1.15;1.00;;;;;;;;;;4968929;28;20043;-94
2021/12/10 10:41:50;;;;;;;0.95;0.88;;;;;;;;;;4973335;28;20027;-94
2021/12/10 10:44:17;;;;;;;0.38;0.38;;;;;;;;;;4969036;28;20129;-91
2021/12/10 10:46:44;;;;;;;0.55;0.55;;;;;;;;;;4966506;28;20933;-91
2021/12/10 10:49:10;;;;;;;2.65;1.30;;;;;;;;;;4963480;28;20062;-89
2021/12/10 10:51:41;;;;;;;1.45;0.95;;;;;;;;;;4968914;28;20033;-93
2021/12/10 10:54:11;;;;;;;1.52;0.77;;;;;;;;;;4969957;28;20447;-93
2021/12/10 10:56:42;;;;;;;0.68;0.68;;;;;;;;;;4968368;28;20545;-92
2021/12/10 10:59:16;;;;;;;0.55;0.50;;;;;;;;;;4968859;28;20026;-93
2021/12/10 11:01:48;;;;;;;1.40;0.60;;;;;;;;;;4968637;28;20030;-91
2021/12/10 11:04:24;;;;;;;1.33;0.77;;;;;;;;;;4967535;28;20030;-91
2021/12/10 11:06:52;;;;;;;0.63;0.63;;;;;;;;;;4962074;28;20030;-91
2021/12/10 11:09:27;;;;;;;2.53;0.80;;;7.90;83.90;;;;;;4971111;28;20035;-92
2021/12/10 11:11:53;;;;;;;1.35;1.00;;;;;;;;;;4969523;28;20143;-93
2021/12/10 11:14:19;;;;;;;1.10;1.00;;;;;;;;;;4961929;28;20840;-93
2021/12/10 11:16:46;;;;;;;3.22;0.75;;;;;;;;;;4959749;28;20028;-92
2021/12/10 11:19:20;;;;;;;3.17;0.73;;;;;;;;;;4968323;28;20047;-91
2021/12/10 11:21:47;;;;;;;0.95;0.60;;;;;;;;;;4964917;28;20504;-91
2021/12/10 11:24:16;;;;;;;2.35;0.88;;;;;;;;;;4969042;28;20109;-92
2021/12/10 11:26:50;;;;;;;1.15;1.00;;;8.50;81.30;;;;;;4964009;28;20043;-93
2021/12/10 11:29:35;;;;;;;0.50;0.50;;;;;;;;;;4968675;28;20105;-93
2021/12/10 11:32:04;;;;;;;2.15;1.52;;;;;;;;;;4967974;28;20664;-91
2021/12/10 11:35:05;;;;;;;2.58;1.40;;;8.80;81.00;;;;;;4967340;28;20038;-91
2021/12/10 11:37:43;;;;;;;0.90;0.77;;;;;;;;;;4968813;28;20039;-92
2021/12/10 11:40:31;;;;;;;11.48;1.98;;;;;;;;;;4964798;28;20123;-92
2021/12/10 11:43:04;;;;;;;1.80;0.60;;;;;;;;;;4964422;28;20058;-91
2021/12/10 11:45:43;;;;;;;0.77;0.77;;;8.80;78.70;;;;;;4966670;28;20031;-91
2021/12/10 11:48:12;;;;;;;1.00;0.82;;;;;;;;;;4970218;28;20039;-92
2021/12/10 11:50:41;;;;;;;2.38;1.17;;;;;;;;;;4972786;28;20027;-91
2021/12/10 11:53:07;;;;;;;9.00;1.08;;;;;;;;;;4974365;28;20113;-93
2021/12/10 11:55:35;;;;;;;2.20;1.08;;;;;;;;;;4970661;28;20025;-93
2021/12/10 11:58:02;;;;;;;0.80;0.80;;;;;;;;;;4974612;28;20118;-92
2021/12/10 12:00:31;;;;;;;3.33;1.50;;;;;;;;;;4974684;28;20035;-92
2021/12/10 12:03:01;;;;;;;2.33;0.75;;;;;;;;;;4973289;28;20524;-90
2021/12/10 12:05:31;;;;;;;1.83;1.10;;;;;;;;;;4965766;28;20027;-91
2021/12/10 12:08:00;;;;;;;3.13;1.92;;;;;;;;;;4973599;28;20069;-91
2021/12/10 12:10:39;;;;;;;1.05;0.60;;;;;;;;;;4973461;28;20611;-92
2021/12/10 12:15:46;;;;;;;5.88;1.88;;;;;;;;;;4973112;28;20042;-91
2021/12/10 12:18:23;;;;;;;3.20;1.80;;;;;;;;;;4964821;28;20524;-91
2021/12/10 12:20:52;;;;;;;1.55;1.35;;;8.70;76.30;;;;;;4972699;28;20027;-92
2021/12/10 12:26:23;;;;;;;0.70;0.57;;;;;;;;;;4970069;28;20102;-93
2021/12/10 12:28:51;;;;;;;0.80;0.57;;;;;;;;;;4969759;28;20061;-93
2021/12/10 12:31:19;;;;;;;2.58;1.25;;;;;;;;;;4974683;28;20285;-92
2021/12/10 12:33:59;;;;;;;5.18;1.33;;;;;;;;;;4972845;28;20031;-90
2021/12/10 12:36:51;;;;;;;1.40;0.77;;;8.60;77.80;;;;;;4970475;28;20476;-93
2021/12/10 12:39:32;;;;;;;0.90;0.77;;;;;;;;;;4972221;28;20047;-92
2021/12/10 12:45:24;;;;;;;1.48;1.25;;;;;;;;;;5842214;23;20056;-95
2021/12/10 12:48:09;;;;;;;3.00;2.10;;;;;;;;;;5069399;28;20041;-94
2021/12/10 12:51:12;;;;;;;;;;;;;;;;;;;;;
2021/12/10 12:53:41;;;;;;;0.50;0.50;;;;;;;;;;5066026;28;20052;-95
2021/12/10 12:56:14;;;;;;;0.50;0.50;;;;;;;;;;5066281;28;20021;-94
2021/12/10 12:58:46;;;;;;;0.75;0.70;;;;;;;;;;5063484;28;20115;-92
2021/12/10 13:01:18;;;;;;;0.65;0.60;;;;;;;;;;5064795;28;20025;-94
2021/12/10 13:03:47;;;;;;;1.48;0.88;;;;;;;;;;5073787;28;20029;-95
2021/12/10 13:06:13;;;;;;;4.72;1.75;;;;;;;;;;5062274;28;20017;-92
2021/12/10 13:08:41;;;;;;;1.40;1.30;;;;;;;;;;5065658;28;20507;-93
2021/12/10 13:11:30;;;;;;;0.77;0.75;;;;;;;;;;5068934;28;20563;-95
2021/12/10 13:14:18;;;;;;;0.55;0.52;;;;;;;;;;5065131;28;20036;-94
2021/12/10 13:16:46;;;;;;;0.55;0.55;;;;;;;;;;5062873;28;20041;-94
2021/12/10 13:19:16;;;;;;;0.93;0.70;;;;;;;;;;5063235;28;20052;-93
2021/12/10 13:21:43;;;;;;;0.40;0.40;;;;;;;;;;5042824;28;20069;-92
2021/12/10 13:24:10;;;;;;;0.82;0.68;;;;;;;;;;5053409;28;20386;-93
2021/12/10 13:26:36;;;;;;;3.88;0.60;;;;;;;;;;5063891;28;20029;-92
2021/12/10 13:29:06;;;;;;;3.20;0.90;;;;;;;;;;5053179;28;20033;-91
2021/12/10 13:31:32;;;;;;;1.85;0.90;;;;;;;;;;5062106;28;20021;-90
2021/12/10 13:33:58;;;;;;;0.47;0.38;;;;;;;;;;5045152;28;20045;-94
2021/12/10 13:36:25;;;;;;;1.05;0.77;;;;;;;;;;5043996;28;20024;-94
2021/12/10 13:38:52;;;;;;;;;;;7.60;77.20;;;;;;5072443;28;20696;-94
2021/12/10 13:41:21;;;;;;;7.32;1.42;;;;;;;;;;5068732;28;19915;-95
2021/12/10 13:43:56;;;;;;;3.15;0.95;;;;;;;;;;5066171;28;20041;-92
2021/12/10 13:46:33;;;;;;;0.65;0.57;;;;;;;;;;5058533;28;20056;-94
2021/12/10 13:49:03;;;;;;;2.58;1.40;;;;;;;;;;5067716;28;20041;-93
2021/12/10 13:51:40;;;;;;;6.97;0.98;;;;;;;;;;5067365;28;20505;-91
2021/12/10 13:54:12;;;;;;;0.93;0.93;;;;;;;;;;5045606;28;20037;-91
2021/12/10 13:56:39;;;;;;;4.90;1.73;;;;;;;;;;5066435;28;20025;-94
2021/12/10 13:59:05;;;;;;;;;;;;;;;;;;5049861;28;20029;-93
2021/12/10 14:01:36;;;;;;;0.90;0.82;;;;;;;;;;5045797;28;19911;-92
2021/12/10 14:04:12;;;;;;;2.25;1.05;;;;;;;;;;5063851;28;20039;-92
2021/12/10 14:06:41;;;;;;;2.80;0.95;;;;;;;;;;5056925;28;20031;-92
2021/12/10 14:09:12;;;;;;;2.45;0.65;;;;;;;;;;5062387;28;20028;-93
2021/12/10 14:11:56;;;;;;;1.70;0.90;;;;;;;;;;5056240;28;20053;-91
2021/12/10 14:14:30;;;;;;;0.95;0.90;;;;;;;;;;5066807;28;20044;-94
2021/12/10 14:17:01;;;;;;;6.97;1.00;;;;;;;;;;5047580;28;20066;-92
2021/12/10 14:19:28;;;;;;;0.50;0.50;;;;;;;;;;5067510;28;20059;-93
2021/12/10 14:21:58;;;;;;;1.52;1.00;;;;;;;;;;5040030;28;20045;-94
2021/12/10 14:24:44;;;;;;;1.83;1.00;;;;;;;;;;5063744;28;20565;-92
2021/12/10 14:27:14;;;;;;;6.05;1.05;;;;;;;;;;5056894;28;20127;-92
2021/12/10 14:30:03;;;;;;;4.13;1.15;;;;;;;;;;5041181;28;20589;-91
2021/12/10 14:32:29;;;;;;;1.25;0.98;;;;;;;;;;5036328;28;20567;-89
2021/12/10 14:35:11;;;;;;;6.93;0.75;;;;;;;;;;5060182;28;20385;-91
2021/12/10 14:38:03;;;;;;;4.45;0.95;;;;;;;;;;5064423;28;20041;-92
2021/12/10 14:40:31;;;;;;;2.63;0.82;;;;;;;;;;5052229;28;20068;-91
2021/12/10 14:43:06;;;;;;;2.22;0.55;;;;;;;;;;5039171;28;20091;-93
2021/12/10 14:45:33;;;;;;;2.38;1.08;;;;;;;;;;5058114;28;20040;-90
2021/12/10 14:48:18;;;;;;;0.60;0.60;;;;;;;;;;5037354;28;20067;-91
2021/12/10 14:50:58;;;;;;;1.02;0.95;;;;;;;;;;5070411;28;20043;-92
2021/12/10 14:53:26;;;;;;;1.40;0.80;;;;;;;;;;5062512;28;20059;-93
2021/12/10 14:55:52;;;;;;;4.50;1.17;;;;;;;;;;5037708;28;20043;-91
2021/12/10 14:58:28;;;;;;;3.28;0.73;;;;;;;;;;5060089;28;20029;-90
2021/12/10 15:00:58;;;;;;;4.40;1.63;;;;;;;;;;5064650;28;20089;-91
2021/12/10 15:03:27;;;;;;;1.38;0.95;;;;;;;;;;5060608;28;20044;-91
2021/12/10 15:05:59;;;;;;;0.77;0.77;;;;;;;;;;5058449;28;20029;-91
2021/12/10 15:08:31;;;;;;;0.70;0.70;;;;;;;;;;5060112;28;20030;-91
2021/12/10 15:10:58;;;;;;;1.30;0.95;;;;;;;;;;5045735;28;20042;-91